createdAt,value
2022-12-11T00:01:31.509Z,2.00
2022-12-11T00:03:58.362Z,2.00
2022-12-11T00:06:25.187Z,2.00
2022-12-11T00:08:55.144Z,1.90
2022-12-11T00:11:22.364Z,1.90
2022-12-11T00:13:49.064Z,2.00
2022-12-11T00:16:15.915Z,1.90
2022-12-11T00:18:42.812Z,2.00
2022-12-11T00:21:11.677Z,2.00
2022-12-11T00:23:38.435Z,2.00
2022-12-11T00:26:06.826Z,2.00
2022-12-11T00:28:33.834Z,2.00
2022-12-11T00:31:03.344Z,2.00
2022-12-11T00:33:31.353Z,2.00
2022-12-11T00:35:57.992Z,2.00
2022-12-11T00:38:25.478Z,2.00
2022-12-11T00:40:52.292Z,2.00
2022-12-11T00:43:19.182Z,2.00
2022-12-11T00:45:46.739Z,1.90
2022-12-11T00:48:13.713Z,1.90
2022-12-11T00:50:41.936Z,1.90
2022-12-11T00:53:08.623Z,1.90
2022-12-11T00:55:39.851Z,1.80
2022-12-11T00:58:07.092Z,1.80
2022-12-11T01:00:33.992Z,1.80
2022-12-11T01:03:00.919Z,1.80
2022-12-11T01:05:28.042Z,1.70
2022-12-11T01:07:54.843Z,1.70
2022-12-11T01:10:24.848Z,1.70
2022-12-11T01:12:52.938Z,1.70
2022-12-11T01:15:20.981Z,1.70
2022-12-11T01:17:47.699Z,1.70
2022-12-11T01:20:14.390Z,1.70
2022-12-11T01:22:41.373Z,1.70
2022-12-11T01:25:09.746Z,1.80
2022-12-11T01:27:38.497Z,1.80
2022-12-11T01:30:05.955Z,1.80
2022-12-11T01:32:32.779Z,1.80
2022-12-11T01:34:59.473Z,1.80
2022-12-11T01:37:26.331Z,1.80
2022-12-11T01:39:53.356Z,1.80
2022-12-11T01:42:20.577Z,1.80
2022-12-11T01:44:47.219Z,1.80
2022-12-11T01:47:13.999Z,1.70
2022-12-11T01:49:40.990Z,1.70
2022-12-11T01:52:10.675Z,1.60
2022-12-11T01:54:37.360Z,1.60
2022-12-11T01:57:05.651Z,1.60
2022-12-11T01:59:35.077Z,1.60
2022-12-11T02:02:07.758Z,1.60
2022-12-11T02:04:36.035Z,1.60
2022-12-11T02:07:03.773Z,1.60
2022-12-11T02:09:32.485Z,1.60
2022-12-11T02:12:07.167Z,1.60
2022-12-11T02:14:43.238Z,1.60
2022-12-11T02:17:16.317Z,1.60
2022-12-11T02:19:49.121Z,1.60
2022-12-11T02:22:21.739Z,1.60
2022-12-11T02:25:07.719Z,1.70
2022-12-11T02:28:04.047Z,1.70
2022-12-11T02:30:31.599Z,1.60
2022-12-11T02:32:58.875Z,1.60
2022-12-11T02:35:33.685Z,1.60
2022-12-11T02:38:05.570Z,1.60
2022-12-11T02:40:34.884Z,1.60
2022-12-11T02:43:03.132Z,1.60
2022-12-11T02:45:30.970Z,1.60
2022-12-11T02:47:59.416Z,1.60
2022-12-11T02:50:27.216Z,1.60
2022-12-11T02:52:55.728Z,1.60
2022-12-11T02:55:23.460Z,1.60
2022-12-11T02:57:50.047Z,1.50
2022-12-11T03:00:16.916Z,1.50
2022-12-11T03:02:43.734Z,1.60
2022-12-11T03:05:11.505Z,1.60
2022-12-11T03:07:39.650Z,1.60
2022-12-11T03:10:07.559Z,1.50
2022-12-11T03:12:36.789Z,1.50
2022-12-11T03:15:05.850Z,1.50
2022-12-11T03:17:38.708Z,1.60
2022-12-11T03:20:24.617Z,1.60
2022-12-11T03:22:56.471Z,1.60
2022-12-11T03:25:25.978Z,1.60
2022-12-11T03:27:55.600Z,1.60
2022-12-11T03:30:23.667Z,1.60
2022-12-11T03:32:56.705Z,1.60
2022-12-11T03:35:29.098Z,1.70
2022-12-11T03:37:57.713Z,1.70
2022-12-11T03:40:25.691Z,1.70
2022-12-11T03:42:53.660Z,1.70
2022-12-11T03:45:21.036Z,1.80
2022-12-11T03:47:48.511Z,1.80
2022-12-11T03:50:16.475Z,1.80
2022-12-11T03:52:46.169Z,1.80
2022-12-11T03:55:14.044Z,1.80
2022-12-11T03:57:40.652Z,1.80
2022-12-11T04:00:08.623Z,1.70
2022-12-11T04:02:38.829Z,1.80
2022-12-11T04:05:05.815Z,1.80
2022-12-11T04:07:32.525Z,1.80
2022-12-11T04:10:00.084Z,1.80
2022-12-11T04:12:26.754Z,1.80
2022-12-11T04:15:02.905Z,1.90
2022-12-11T04:17:49.832Z,1.90
2022-12-11T04:20:35.270Z,1.90
2022-12-11T04:23:23.507Z,1.90
2022-12-11T04:25:50.149Z,1.90
2022-12-11T04:28:17.038Z,1.90
2022-12-11T04:30:48.093Z,1.90
2022-12-11T04:33:14.776Z,1.90
2022-12-11T04:35:41.368Z,1.90
2022-12-11T04:38:08.311Z,1.90
2022-12-11T04:40:34.857Z,1.90
2022-12-11T04:43:01.639Z,1.90
2022-12-11T04:45:28.434Z,1.90
2022-12-11T04:47:55.319Z,1.90
2022-12-11T04:50:22.328Z,1.90
2022-12-11T04:52:49.140Z,1.90
2022-12-11T04:55:16.035Z,1.90
2022-12-11T04:57:42.829Z,1.90
2022-12-11T05:00:10.933Z,1.90
2022-12-11T05:02:38.591Z,1.90
2022-12-11T05:05:06.045Z,1.90
2022-12-11T05:07:32.820Z,1.90
2022-12-11T05:09:59.425Z,1.90
2022-12-11T05:12:26.128Z,1.90
2022-12-11T05:14:53.213Z,1.90
2022-12-11T05:17:20.741Z,1.90
2022-12-11T05:19:48.841Z,1.90
2022-12-11T05:22:15.636Z,1.90
2022-12-11T05:24:42.633Z,1.90
2022-12-11T05:27:10.132Z,1.80
2022-12-11T05:29:36.954Z,1.80
2022-12-11T05:32:03.968Z,1.90
2022-12-11T05:34:30.756Z,1.80
2022-12-11T05:36:57.451Z,1.90
2022-12-11T05:39:24.239Z,1.90
2022-12-11T05:41:50.980Z,1.90
2022-12-11T05:44:17.774Z,1.90
2022-12-11T05:46:44.527Z,1.90
2022-12-11T05:49:11.475Z,1.90
2022-12-11T05:51:39.517Z,1.90
2022-12-11T05:54:06.152Z,1.90
2022-12-11T05:56:34.042Z,1.90
2022-12-11T05:59:01.673Z,1.90
2022-12-11T06:01:30.022Z,2.00
2022-12-11T06:03:57.132Z,1.90
2022-12-11T06:06:24.373Z,2.00
2022-12-11T06:08:55.130Z,1.90
2022-12-11T06:11:24.072Z,1.90
2022-12-11T06:13:51.537Z,1.90
2022-12-11T06:16:18.850Z,1.90
2022-12-11T06:18:45.715Z,1.90
2022-12-11T06:21:17.179Z,2.00
2022-12-11T06:23:44.419Z,2.00
2022-12-11T06:26:12.002Z,2.00
2022-12-11T06:28:39.325Z,2.00
2022-12-11T06:31:06.458Z,2.00
2022-12-11T06:33:33.769Z,2.00
2022-12-11T06:36:10.999Z,2.00
2022-12-11T06:38:40.934Z,2.00
2022-12-11T06:41:08.632Z,1.90
2022-12-11T06:43:36.992Z,1.90
2022-12-11T06:46:05.228Z,1.90
2022-12-11T06:48:32.104Z,1.90
2022-12-11T06:50:59.001Z,1.90
2022-12-11T06:53:25.764Z,1.90
2022-12-11T06:55:52.468Z,1.90
2022-12-11T06:58:19.118Z,1.90
2022-12-11T07:00:46.046Z,1.90
2022-12-11T07:03:14.013Z,2.00
2022-12-11T07:05:40.723Z,1.90
2022-12-11T07:08:07.682Z,2.00
2022-12-11T07:10:34.467Z,1.90
2022-12-11T07:13:01.603Z,1.90
2022-12-11T07:15:28.377Z,1.90
2022-12-11T07:17:55.071Z,2.00
2022-12-11T07:20:21.698Z,2.00
2022-12-11T07:22:48.722Z,2.00
2022-12-11T07:25:15.629Z,2.00
2022-12-11T07:27:42.590Z,2.00
2022-12-11T07:30:09.560Z,2.00
2022-12-11T07:32:36.587Z,2.00
2022-12-11T07:35:04.148Z,2.00
2022-12-11T07:37:31.725Z,2.00
2022-12-11T07:39:58.664Z,2.00
2022-12-11T07:42:25.414Z,2.00
2022-12-11T07:44:52.005Z,2.00
2022-12-11T07:47:19.026Z,2.00
2022-12-11T07:49:45.791Z,2.00
2022-12-11T07:52:12.609Z,2.00
2022-12-11T07:54:39.322Z,2.00
2022-12-11T07:57:12.252Z,2.10
2022-12-11T07:59:41.999Z,2.10
2022-12-11T08:02:11.928Z,2.10
2022-12-11T08:04:39.033Z,2.10
2022-12-11T08:07:06.027Z,2.10
2022-12-11T08:09:32.832Z,2.00
2022-12-11T08:11:59.799Z,2.10
2022-12-11T08:14:26.544Z,2.00
2022-12-11T08:16:53.809Z,2.00
2022-12-11T08:19:20.893Z,2.00
2022-12-11T08:21:47.897Z,2.00
2022-12-11T08:24:16.413Z,2.00
2022-12-11T08:26:44.484Z,2.00
2022-12-11T08:29:11.214Z,2.00
2022-12-11T08:31:39.266Z,2.00
2022-12-11T08:34:06.251Z,2.00
2022-12-11T08:36:33.096Z,2.00
2022-12-11T08:39:00.396Z,2.00
2022-12-11T08:41:28.430Z,1.90
2022-12-11T08:43:56.143Z,1.90
2022-12-11T08:46:24.933Z,1.80
2022-12-11T08:48:52.194Z,1.80
2022-12-11T08:51:20.718Z,1.90
2022-12-11T08:53:47.569Z,1.90
2022-12-11T08:56:16.264Z,2.00
2022-12-11T08:58:45.893Z,2.00
2022-12-11T09:01:14.561Z,2.00
2022-12-11T09:03:41.719Z,2.10
2022-12-11T09:06:09.822Z,2.10
2022-12-11T09:08:37.392Z,2.10
2022-12-11T09:11:05.698Z,2.10
2022-12-11T09:13:32.807Z,2.10
2022-12-11T09:15:59.800Z,2.10
2022-12-11T09:18:27.445Z,2.20
2022-12-11T09:20:58.012Z,2.10
2022-12-11T09:23:24.860Z,2.20
2022-12-11T09:25:52.101Z,2.20
2022-12-11T09:28:19.197Z,2.20
2022-12-11T09:30:46.257Z,2.20
2022-12-11T09:33:13.194Z,2.20
2022-12-11T09:35:40.170Z,2.20
2022-12-11T09:38:07.492Z,2.20
2022-12-11T09:40:34.915Z,2.20
2022-12-11T09:43:13.462Z,2.20
2022-12-11T09:45:40.421Z,2.20
2022-12-11T09:48:09.445Z,2.20
2022-12-11T09:50:36.862Z,2.20
2022-12-11T09:53:15.016Z,2.20
2022-12-11T09:55:44.938Z,2.20
2022-12-11T09:58:26.761Z,2.20
2022-12-11T10:01:03.621Z,2.20
2022-12-11T10:03:50.461Z,2.20
2022-12-11T10:06:24.316Z,2.20
2022-12-11T10:09:03.681Z,2.20
2022-12-11T10:11:38.784Z,2.10
2022-12-11T10:14:14.761Z,2.20
2022-12-11T10:16:47.121Z,2.20
2022-12-11T10:19:19.296Z,2.20
2022-12-11T10:21:47.101Z,2.20
2022-12-11T10:25:09.416Z,2.20
2022-12-11T10:27:26.799Z,2.20
2022-12-11T10:29:59.185Z,2.30
2022-12-11T10:32:30.977Z,2.30
2022-12-11T10:35:03.011Z,2.30
2022-12-11T10:37:31.214Z,2.30
2022-12-11T10:39:59.120Z,2.30
2022-12-11T10:42:26.157Z,2.30
2022-12-11T10:45:01.402Z,2.30
2022-12-11T10:47:28.780Z,2.30
2022-12-11T10:49:58.227Z,2.30
2022-12-11T10:52:26.597Z,2.30
2022-12-11T10:54:59.212Z,2.30
2022-12-11T10:57:27.898Z,2.30
2022-12-11T10:59:55.330Z,2.30
2022-12-11T11:02:26.837Z,2.30
2022-12-11T11:04:54.402Z,2.30
2022-12-11T11:07:23.746Z,2.30
2022-12-11T11:09:51.921Z,2.30
2022-12-11T11:12:24.781Z,2.30
2022-12-11T11:15:00.764Z,2.40
2022-12-11T11:17:30.739Z,2.40
2022-12-11T11:20:05.230Z,2.40
2022-12-11T11:22:32.748Z,2.40
2022-12-11T11:24:59.759Z,2.40
2022-12-11T11:27:39.166Z,2.40
2022-12-11T11:30:24.875Z,2.30
2022-12-11T11:32:54.962Z,2.30
2022-12-11T11:35:23.649Z,2.30
2022-12-11T11:38:13.959Z,2.30
2022-12-11T11:41:05.565Z,2.30
2022-12-11T11:43:38.999Z,2.30
2022-12-11T11:46:10.419Z,2.40
2022-12-11T11:48:45.345Z,2.40
2022-12-11T11:51:23.355Z,2.40
2022-12-11T11:53:52.127Z,2.40
2022-12-11T11:56:24.077Z,2.40
2022-12-11T11:58:56.313Z,2.50
2022-12-11T12:01:23.817Z,2.50
2022-12-11T12:03:51.749Z,2.40
2022-12-11T12:06:27.301Z,2.50
2022-12-11T12:08:53.940Z,2.50
2022-12-11T12:11:44.061Z,2.50
2022-12-11T12:14:50.615Z,2.50
2022-12-11T12:17:16.203Z,2.50
2022-12-11T12:20:02.198Z,2.50
2022-12-11T12:22:56.427Z,2.50
2022-12-11T12:25:42.092Z,2.50
2022-12-11T12:28:27.659Z,2.50
2022-12-11T12:31:02.375Z,2.50
2022-12-11T12:33:42.387Z,2.50
2022-12-11T12:36:09.235Z,2.50
2022-12-11T12:38:44.331Z,2.50
2022-12-11T12:41:19.471Z,2.40
2022-12-11T12:44:00.386Z,2.40
2022-12-11T12:46:39.629Z,2.40
2022-12-11T12:49:33.027Z,2.40
2022-12-11T12:52:00.112Z,2.40
2022-12-11T12:54:27.734Z,2.40
2022-12-11T12:56:55.126Z,2.40
2022-12-11T12:59:22.928Z,2.40
2022-12-11T13:01:55.005Z,2.40
2022-12-11T13:04:54.849Z,2.50
2022-12-11T13:07:27.253Z,2.50
2022-12-11T13:10:01.924Z,2.50
2022-12-11T13:12:39.442Z,2.50
2022-12-11T13:15:06.431Z,2.50
2022-12-11T13:17:39.378Z,2.50
2022-12-11T13:20:22.284Z,2.50
2022-12-11T13:22:48.925Z,2.40
2022-12-11T13:25:41.710Z,2.40
2022-12-11T13:28:20.195Z,2.40
2022-12-11T13:30:57.370Z,2.40
2022-12-11T13:33:24.231Z,2.30
2022-12-11T13:36:02.285Z,2.30
2022-12-11T13:38:29.365Z,2.30
2022-12-11T13:40:56.646Z,2.20
2022-12-11T13:43:28.197Z,2.20
2022-12-11T13:45:56.492Z,2.20
2022-12-11T13:48:23.180Z,2.30
2022-12-11T13:50:51.341Z,2.30
2022-12-11T13:53:18.636Z,2.30
2022-12-11T13:55:45.455Z,2.30
2022-12-11T13:58:19.542Z,2.30
2022-12-11T14:01:05.009Z,2.40
2022-12-11T14:03:32.512Z,2.40
2022-12-11T14:05:59.915Z,2.40
2022-12-11T14:08:30.624Z,2.40
2022-12-11T14:10:57.403Z,2.40
2022-12-11T14:13:25.944Z,2.40
2022-12-11T14:15:53.546Z,2.40
2022-12-11T14:18:24.610Z,2.40
2022-12-11T14:20:55.877Z,2.30
2022-12-11T14:23:27.114Z,2.40
2022-12-11T14:25:54.853Z,2.40
2022-12-11T14:28:23.125Z,2.30
2022-12-11T14:30:50.904Z,2.30
2022-12-11T14:33:18.974Z,2.30
2022-12-11T14:35:46.521Z,2.30
2022-12-11T14:38:17.348Z,2.30
2022-12-11T14:40:49.025Z,2.30
2022-12-11T14:43:22.156Z,2.30
2022-12-11T14:45:49.334Z,2.30
2022-12-11T14:48:23.725Z,2.40
2022-12-11T14:50:54.066Z,2.30
2022-12-11T14:53:32.925Z,2.30
2022-12-11T14:56:02.598Z,2.30
2022-12-11T14:58:29.754Z,2.30
2022-12-11T15:01:04.168Z,2.30
2022-12-11T15:03:32.276Z,2.30
2022-12-11T15:05:58.930Z,2.30
2022-12-11T15:08:30.385Z,2.30
2022-12-11T15:11:17.388Z,2.20
2022-12-11T15:13:50.909Z,2.20
2022-12-11T15:16:17.939Z,2.20
2022-12-11T15:18:48.440Z,2.20
2022-12-11T15:21:16.528Z,2.20
2022-12-11T15:23:46.146Z,2.20
2022-12-11T15:26:12.802Z,2.20
2022-12-11T15:28:39.711Z,2.20
2022-12-11T15:31:08.189Z,2.20
2022-12-11T15:33:44.990Z,2.20
2022-12-11T15:36:26.500Z,2.20
2022-12-11T15:38:53.288Z,2.20
2022-12-11T15:41:25.946Z,2.20
2022-12-11T15:43:58.570Z,2.20
2022-12-11T15:46:26.104Z,2.20
2022-12-11T15:48:53.070Z,2.20
2022-12-11T15:51:19.738Z,2.20
2022-12-11T15:53:46.261Z,2.20
2022-12-11T15:56:13.639Z,2.20
2022-12-11T15:58:40.781Z,2.20
2022-12-11T16:01:07.465Z,2.20
2022-12-11T16:03:34.165Z,2.20
2022-12-11T16:06:00.812Z,2.20
2022-12-11T16:08:27.576Z,2.20
2022-12-11T16:10:54.865Z,2.20
2022-12-11T16:13:22.094Z,2.10
2022-12-11T16:15:49.946Z,2.20
2022-12-11T16:18:23.355Z,2.20
2022-12-11T16:20:50.878Z,2.10
2022-12-11T16:23:17.719Z,2.10
2022-12-11T16:25:45.066Z,2.10
2022-12-11T16:28:12.771Z,2.20
2022-12-11T16:30:39.811Z,2.10
2022-12-11T16:33:11.988Z,2.20
2022-12-11T16:35:39.831Z,2.20
2022-12-11T16:38:07.679Z,2.20
2022-12-11T16:40:34.394Z,2.10
2022-12-11T16:43:01.153Z,2.10
2022-12-11T16:45:28.169Z,2.20
2022-12-11T16:47:55.081Z,2.20
2022-12-11T16:50:22.399Z,2.20
2022-12-11T16:52:49.117Z,2.20
2022-12-11T16:55:15.952Z,2.20
2022-12-11T16:57:42.654Z,2.20
2022-12-11T17:00:12.036Z,2.20
2022-12-11T17:02:39.048Z,2.20
2022-12-11T17:05:05.910Z,2.10
2022-12-11T17:07:33.020Z,2.20
2022-12-11T17:10:01.726Z,2.10
2022-12-11T17:12:28.460Z,2.10
2022-12-11T17:14:55.790Z,2.10
2022-12-11T17:17:22.438Z,2.10
2022-12-11T17:19:49.103Z,2.10
2022-12-11T17:22:15.810Z,2.10
2022-12-11T17:24:42.458Z,2.10
2022-12-11T17:27:09.267Z,2.10
2022-12-11T17:29:35.971Z,2.10
2022-12-11T17:32:03.195Z,2.10
2022-12-11T17:34:36.090Z,2.10
2022-12-11T17:37:05.027Z,2.10
2022-12-11T17:39:31.944Z,2.10
2022-12-11T17:41:58.786Z,2.10
2022-12-11T17:44:26.469Z,2.10
2022-12-11T17:46:53.349Z,2.00
2022-12-11T17:49:20.063Z,2.10
2022-12-11T17:51:47.928Z,2.10
2022-12-11T17:54:14.668Z,2.10
2022-12-11T17:56:41.412Z,2.10
2022-12-11T17:59:08.095Z,2.10
2022-12-11T18:01:34.875Z,2.10
2022-12-11T18:04:01.892Z,2.10
2022-12-11T18:06:29.202Z,2.00
2022-12-11T18:08:55.994Z,2.10
2022-12-11T18:11:23.173Z,2.00
2022-12-11T18:13:50.790Z,2.10
2022-12-11T18:16:17.517Z,2.10
2022-12-11T18:18:46.093Z,2.10
2022-12-11T18:21:17.326Z,2.10
2022-12-11T18:23:44.112Z,2.00
2022-12-11T18:26:11.665Z,2.00
2022-12-11T18:28:38.281Z,2.00
2022-12-11T18:31:05.101Z,2.00
2022-12-11T18:33:32.128Z,2.00
2022-12-11T18:35:58.827Z,2.00
2022-12-11T18:38:25.511Z,2.00
2022-12-11T18:40:52.145Z,2.00
2022-12-11T18:43:18.947Z,2.00
2022-12-11T18:45:45.680Z,2.00
2022-12-11T18:48:13.229Z,2.00
2022-12-11T18:50:47.082Z,2.00
2022-12-11T18:53:14.499Z,2.00
2022-12-11T18:55:45.605Z,2.00
2022-12-11T18:58:13.251Z,1.90
2022-12-11T19:00:40.621Z,1.90
2022-12-11T19:03:07.913Z,1.80
2022-12-11T19:05:35.143Z,1.70
2022-12-11T19:08:02.658Z,1.70
2022-12-11T19:10:29.650Z,1.70
2022-12-11T19:12:56.500Z,1.70
2022-12-11T19:15:24.172Z,1.70
2022-12-11T19:17:51.374Z,1.70
2022-12-11T19:20:47.579Z,1.70
2022-12-11T19:23:05.999Z,1.70
2022-12-11T19:25:32.989Z,1.70
2022-12-11T19:28:00.083Z,1.70
2022-12-11T19:30:26.954Z,1.70
2022-12-11T19:32:54.565Z,1.70
2022-12-11T19:35:21.224Z,1.70
2022-12-11T19:37:48.068Z,1.70
2022-12-11T19:40:14.873Z,1.80
2022-12-11T19:42:41.670Z,1.80
2022-12-11T19:45:08.566Z,1.80
2022-12-11T19:47:35.513Z,1.80
2022-12-11T19:50:02.404Z,1.80
2022-12-11T19:52:29.263Z,1.70
2022-12-11T19:55:00.419Z,1.70
2022-12-11T19:57:27.198Z,1.70
2022-12-11T19:59:57.132Z,1.70
2022-12-11T20:02:24.415Z,1.60
2022-12-11T20:04:51.350Z,1.70
2022-12-11T20:07:18.185Z,1.70
2022-12-11T20:09:45.079Z,1.70
2022-12-11T20:12:12.460Z,1.60
2022-12-11T20:14:39.442Z,1.60
2022-12-11T20:17:12.331Z,1.60
2022-12-11T20:19:40.064Z,1.60
2022-12-11T20:22:06.740Z,1.60
2022-12-11T20:24:33.548Z,1.60
2022-12-11T20:27:00.188Z,1.60
2022-12-11T20:29:28.273Z,1.60
2022-12-11T20:31:55.114Z,1.60
2022-12-11T20:34:21.849Z,1.60
2022-12-11T20:36:48.616Z,1.70
2022-12-11T20:39:16.174Z,1.70
2022-12-11T20:41:43.025Z,1.70
2022-12-11T20:44:09.853Z,1.80
2022-12-11T20:46:36.554Z,1.80
2022-12-11T20:49:03.423Z,1.80
2022-12-11T20:51:32.341Z,1.80
2022-12-11T20:53:59.681Z,1.80
2022-12-11T20:56:30.920Z,1.80
2022-12-11T20:58:58.459Z,1.80
2022-12-11T21:01:26.257Z,1.80
2022-12-11T21:03:53.521Z,1.80
2022-12-11T21:06:30.729Z,1.70
2022-12-11T21:08:58.129Z,1.80
2022-12-11T21:11:24.956Z,1.70
2022-12-11T21:13:52.543Z,1.60
2022-12-11T21:16:20.145Z,1.60
2022-12-11T21:18:47.221Z,1.60
2022-12-11T21:21:14.575Z,1.60
2022-12-11T21:23:43.828Z,1.50
2022-12-11T21:26:10.503Z,1.50
2022-12-11T21:28:37.297Z,1.50
2022-12-11T21:31:06.549Z,1.50
2022-12-11T21:33:33.708Z,1.50
2022-12-11T21:36:00.639Z,1.50
2022-12-11T21:38:29.318Z,1.50
2022-12-11T21:40:56.295Z,1.50
2022-12-11T21:43:23.773Z,1.50
2022-12-11T21:46:06.128Z,1.50
2022-12-11T21:48:33.156Z,1.50
2022-12-11T21:51:13.422Z,1.50
2022-12-11T21:53:40.445Z,1.60
2022-12-11T21:56:09.306Z,1.50
2022-12-11T21:58:36.330Z,1.50
2022-12-11T22:01:03.708Z,1.50
2022-12-11T22:03:30.699Z,1.50
2022-12-11T22:05:57.570Z,1.50
2022-12-11T22:08:24.545Z,1.50
2022-12-11T22:10:52.826Z,1.40
2022-12-11T22:13:19.620Z,1.40
2022-12-11T22:15:46.229Z,1.40
2022-12-11T22:18:12.891Z,1.40
2022-12-11T22:20:39.706Z,1.40
2022-12-11T22:23:06.860Z,1.50
2022-12-11T22:25:33.587Z,1.50
2022-12-11T22:28:00.330Z,1.50
2022-12-11T22:30:27.037Z,1.50
2022-12-11T22:32:53.764Z,1.50
2022-12-11T22:35:25.501Z,1.60
2022-12-11T22:37:53.952Z,1.60
2022-12-11T22:40:20.589Z,1.60
2022-12-11T22:42:47.244Z,1.60
2022-12-11T22:45:14.341Z,1.50
2022-12-11T22:47:41.312Z,1.60
2022-12-11T22:50:08.181Z,1.50
2022-12-11T22:52:34.920Z,1.50
2022-12-11T22:55:02.228Z,1.50
2022-12-11T22:57:29.110Z,1.50
2022-12-11T22:59:56.979Z,1.50
2022-12-11T23:02:23.986Z,1.50
2022-12-11T23:04:50.723Z,1.50
2022-12-11T23:07:17.460Z,1.50
2022-12-11T23:09:44.145Z,1.50
2022-12-11T23:12:10.752Z,1.60
2022-12-11T23:14:37.527Z,1.60
2022-12-11T23:17:04.281Z,1.50
2022-12-11T23:19:31.377Z,1.60
2022-12-11T23:21:58.161Z,1.50
2022-12-11T23:24:24.945Z,1.50
2022-12-11T23:26:51.633Z,1.50
2022-12-11T23:29:18.329Z,1.50
2022-12-11T23:31:44.995Z,1.50
2022-12-11T23:34:11.773Z,1.50
2022-12-11T23:36:38.627Z,1.50
2022-12-11T23:39:05.213Z,1.50
2022-12-11T23:41:31.972Z,1.50
2022-12-11T23:43:59.036Z,1.50
2022-12-11T23:46:26.010Z,1.50
2022-12-11T23:48:53.193Z,1.50
2022-12-11T23:51:21.067Z,1.60
2022-12-11T23:53:47.706Z,1.60
2022-12-11T23:56:19.625Z,1.60
2022-12-11T23:58:46.781Z,1.60
